Algonac, MI

1:22 AM EDT on November 01, 2014 (GMT -0400)
Blue Water Chiropractic Clinic | Change Station
CLOSE
Current Station
Personal Weather Station
Location: Algonac, MI
Elevation: 584 ft
Nearby Weather Stations
Active Advisory: Lakeshore Flood Advisory Active Notice: Public Information Statement

Elev 584 ft 42.62 °N, 82.59 °W | Updated 16 seconds ago

Overcast
Overcast
38.1 °F
Feels Like 35 °F
N
4.0
Wind Variable Wind from NE
Gusts 0.0 mph

Today
High -- | Low -- °F
--% Chance of Precip.
Yesterday
High -- | Low -- °F
Precip. -- in
8:04 AM 6:23 PM
Waxing Gibbous, 63% visible
Pressure 30.11 in
Visibility 10.0 miles
Clouds Overcast 900 ft
Windchill 35 °F
Dew Point 35 °F
Humidity 89%
Rainfall 0.00 in
Snow Depth Not available.
UV 0 out of 12
Pollen .10 out of 12
Air Quality Not available.
Flu Activity Not available.
METAR KMTC 010458Z AUTO 35018G24KT 10SM -RA OVC009 02/02 A3008 RMK AO2 PK WND 35027/05 SLP194 P0001 T00180018 400820018

More Conditions Fewer Conditions

Pressure 30.11 in
Visibility 10.0 miles
Clouds Overcast 900 ft
Windchill 35 °F
Dew Point 35 °F
Humidity 89%
Rainfall 0.00 in
Snow Depth Not available.
UV 0 out of 12
Pollen .10 out of 12
Air Quality Not available.
Flu Activity Not available.
METAR KMTC 010458Z AUTO 35018G24KT 10SM -RA OVC009 02/02 A3008 RMK AO2 PK WND 35027/05 SLP194 P0001 T00180018 400820018

More Conditions Fewer Conditions

10-Day Weather Forecast

Almanac

Astronomy

Nov. 01, 2014 Rise Set
Actual Time
Civil Twilight
Nautical Twilight
Astronomical Twilight
Moon
Length of Visible Light
Length of Day
Tomorrow will be .
, % of the Moon is Illuminated

Today's Extremes

State Highs State Lows

Community

WunderPhotos

Upload Photos

1,766,858 photos uploaded!

WunderBlogs® & News

Nearby

Air Quality

  Air Quality AQ Index Pollutant
Not available.

Snow Depth

Station Depth Elevation

Earthquake Activity

City Distance Mag. Time & Date
Minimum magnitude displayed is 2.5.

Coastal Water Temperatures

Place Temperature

Nearby Weather Stations